Time;durP1;ratioP1;P1;durP2;ratioP2;P2;SDS_P1;SDS_P2;PMS_P1;PMS_P2;Temp;Humidity;BMP_temperature;BMP_pressure;BME280_temperature;BME280_humidity;BME280_pressure;Samples;Min_cycle;Max_cycle;Signal;HPM_P1;HPM_P2
2022/04/27 00:01:02;;;;;;;1.75;1.65;;;;;;;8.16;73.18;99001.06;4087598;29;20239;-57
2022/04/27 00:03:05;;;;;;;2.47;2.28;;;;;;;8.16;73.45;99006.53;4086422;28;20318;-55
2022/04/27 00:05:08;;;;;;;2.22;2.03;;;;;;;8.15;73.22;99000.22;4101826;28;20206;-57
2022/04/27 00:07:09;;;;;;;2.30;2.17;;;;;;;8.15;73.36;99004.84;4103201;28;20235;-56
2022/04/27 00:09:14;;;;;;;2.00;1.60;;;;;;;8.15;73.89;99005.69;4092809;28;20658;-55
2022/04/27 00:11:16;;;;;;;3.00;2.70;;;;;;;8.14;74.05;99004.00;4101954;28;20215;-57
2022/04/27 00:13:17;;;;;;;3.50;3.20;;;;;;;8.12;74.19;98994.38;4087349;28;20733;-56
2022/04/27 00:15:25;;;;;;;1.98;1.88;;;;;;;8.13;73.99;99001.50;4092996;29;20242;-57
2022/04/27 00:17:26;;;;;;;2.90;2.63;;;;;;;8.08;73.92;98999.44;4118149;28;20798;-55
2022/04/27 00:19:28;;;;;;;2.13;1.90;;;;;;;8.03;73.90;98996.53;4085221;28;20208;-55
2022/04/27 00:21:30;;;;;;;2.45;2.28;;;;;;;7.97;73.46;98997.47;4086542;29;20254;-56
2022/04/27 00:23:34;;;;;;;2.47;2.28;;;;;;;7.94;73.65;99005.22;4092832;29;20274;-56
2022/04/27 00:25:36;;;;;;;2.30;2.17;;;;;;;7.91;74.05;98997.50;4118695;28;20207;-56
2022/04/27 00:27:38;;;;;;;2.10;1.90;;;;;;;7.89;73.88;98994.16;4091053;29;20580;-55
2022/04/27 00:29:40;;;;;;;2.63;2.42;;;;;;;7.88;74.18;98992.50;4118366;28;20674;-57
2022/04/27 00:31:42;;;;;;;1.80;1.52;;;;;;;7.85;73.74;98995.66;4090229;28;20204;-54
2022/04/27 00:33:45;;;;;;;2.42;2.22;;;;;;;7.82;73.88;98996.09;4086074;29;20204;-54
2022/04/27 00:35:47;;;;;;;2.10;1.90;;;;;;;7.81;74.27;98997.16;4071640;29;20232;-56
2022/04/27 00:37:48;;;;;;;2.83;2.63;;;;;;;7.80;74.11;99000.91;4117173;28;20233;-56
2022/04/27 00:39:50;;;;;;;2.70;2.53;;;;;;;7.80;74.47;98995.47;4092385;28;20661;-55
2022/04/27 00:42:02;;;;;;;2.25;2.10;;;;;;;7.76;73.94;98994.25;4086349;28;20244;-57
2022/04/27 00:44:03;;;;;;;3.13;2.58;;;;;;;7.63;74.47;98988.91;4088986;28;20299;-56
2022/04/27 00:46:05;;;;;;;2.47;2.38;;;;;;;7.62;74.72;98995.41;4086618;28;20259;-57
2022/04/27 00:48:09;;;;;;;2.15;2.05;;;;;;;7.57;74.94;98990.59;4102963;28;20231;-57
2022/04/27 00:50:11;;;;;;;2.80;2.60;;;;;;;7.55;74.35;98997.34;4099683;28;20203;-55
2022/04/27 00:52:15;;;;;;;3.08;2.70;;;;;;;7.53;74.65;98988.53;4093201;29;20212;-55
2022/04/27 00:54:18;;;;;;;2.22;2.03;;;;;;;7.57;74.56;98985.16;4103384;28;20207;-56
2022/04/27 00:56:21;;;;;;;2.55;2.35;;;;;;;7.40;74.48;98999.50;4089078;29;20238;-57
2022/04/27 00:58:25;;;;;;;2.25;2.05;;;;;;;7.36;74.47;98998.28;4071028;29;20216;-56
2022/04/27 01:00:47;;;;;;;2.67;2.47;;;;;;;7.26;74.99;98997.91;4084502;28;20235;-57
2022/04/27 01:02:48;;;;;;;2.90;2.70;;;;;;;7.25;75.76;99007.97;4081466;28;20233;-56
2022/04/27 01:04:50;;;;;;;2.05;1.95;;;;;;;7.25;74.85;99005.25;4118418;28;20314;-55
2022/04/27 01:06:52;;;;;;;3.60;3.30;;;;;;;7.27;75.28;99007.75;4086360;28;20716;-58
2022/04/27 01:08:54;;;;;;;3.45;3.25;;;;;;;7.20;74.67;99004.22;4088069;28;20671;-56
2022/04/27 01:10:59;;;;;;;3.42;2.55;;;;;;;7.16;74.41;99003.81;4083814;28;20239;-55
2022/04/27 01:13:01;;;;;;;2.35;2.15;;;;;;;7.16;74.64;99013.88;4087453;28;20293;-55
2022/04/27 01:15:07;;;;;;;2.80;2.60;;;;;;;7.15;74.39;99017.66;4118533;28;20657;-54
2022/04/27 01:17:08;;;;;;;3.10;2.78;;;;;;;7.12;74.36;99018.94;4087633;29;20311;-55
2022/04/27 01:19:10;;;;;;;3.33;3.03;;;;;;;7.09;74.57;99023.97;4093163;28;20204;-56
2022/04/27 01:21:12;;;;;;;3.65;2.70;;;;;;;7.06;74.23;99024.38;4102283;28;20207;-55
2022/04/27 01:23:14;;;;;;;2.60;2.40;;;;;;;7.01;74.13;99016.88;4093276;28;20735;-55
2022/04/27 01:25:16;;;;;;;9.48;2.35;;;;;;;6.98;74.21;99021.91;4119007;28;20217;-54
2022/04/27 01:27:18;;;;;;;3.80;3.50;;;;;;;6.98;74.56;99021.91;4092700;28;20227;-55
2022/04/27 01:29:22;;;;;;;3.22;2.38;;;;;;;6.96;74.19;99013.13;4077904;29;20215;-55
2022/04/27 01:31:24;;;;;;;3.05;2.85;;;;;;;6.95;74.49;99011.47;4087387;28;20203;-55
2022/04/27 01:33:26;;;;;;;2.50;2.30;;;;;;;6.95;74.27;99022.34;4115862;28;20229;-55
2022/04/27 01:35:28;;;;;;;2.60;2.40;;;;;;;6.94;74.01;99021.50;4102081;28;20207;-55
2022/04/27 01:39:50;;;;;;;2.60;2.40;;;;;;;6.94;74.36;99015.22;4088682;29;20219;-55
2022/04/27 01:41:51;;;;;;;3.03;2.83;;;;;;;6.90;74.10;99016.72;4101708;28;20219;-55
2022/04/27 01:43:57;;;;;;;2.72;2.55;;;;;;;6.84;73.93;99017.56;4094479;29;20243;-54
2022/04/27 01:45:59;;;;;;;2.42;2.33;;;;;;;6.80;74.06;99013.59;4103626;28;20230;-55
2022/04/27 01:48:01;;;;;;;1.83;1.73;;;;;;;6.75;73.87;99016.94;4093295;29;20216;-56
2022/04/27 01:50:03;;;;;;;1.75;1.65;;;;;;;6.74;73.75;99019.88;4090128;29;20266;-55
2022/04/27 01:54:25;;;;;;;1.83;1.73;;;;;;;6.67;73.78;99014.47;4091682;28;20227;-54
2022/04/27 01:56:27;;;;;;;1.80;1.70;;;;;;;6.66;73.92;99014.69;4091605;28;20651;-55
2022/04/27 01:58:29;;;;;;;2.38;2.10;;;;;;;6.60;73.75;99012.81;4091029;28;20287;-54
2022/04/27 02:00:31;;;;;;;2.38;2.03;;;;;;;6.54;73.74;99025.38;4091055;28;20222;-55
2022/04/27 02:02:33;;;;;;;2.55;2.35;;;;;;;6.51;73.88;99020.38;4091379;28;20220;-55
2022/04/27 02:04:36;;;;;;;2.40;2.20;;;;;;;6.46;73.75;99027.47;4095260;28;20219;-55
2022/04/27 02:06:38;;;;;;;2.17;1.83;;;;;;;6.43;73.86;99028.72;4106054;28;20297;-54
2022/04/27 02:08:40;;;;;;;2.80;2.60;;;;;;;6.39;73.52;99032.09;4089020;28;20706;-56
2022/04/27 02:10:42;;;;;;;3.00;2.80;;;;;;;6.40;73.74;99033.75;4092587;28;20208;-55
2022/04/27 02:12:43;;;;;;;2.65;2.20;;;;;;;6.35;73.99;99025.41;4102682;28;20266;-55
2022/04/27 02:14:45;;;;;;;2.83;2.30;;;;;;;6.33;73.61;99032.94;4120981;28;20351;-56
2022/04/27 02:16:47;;;;;;;2.08;1.98;;;;;;;6.30;74.23;99034.19;4094322;29;20238;-55
2022/04/27 02:18:49;;;;;;;2.28;1.90;;;;;;;6.26;74.15;99026.66;4089291;28;20207;-55
2022/04/27 02:20:50;;;;;;;3.42;3.15;;;;;;;6.21;73.92;99029.16;4121997;28;20206;-54
2022/04/27 02:22:52;;;;;;;2.75;2.40;;;;;;;6.18;74.30;99029.59;4095988;28;20250;-54
2022/04/27 02:24:54;;;;;;;1.88;1.77;;;;;;;6.15;74.17;99036.28;4121544;28;20214;-55
2022/04/27 02:26:56;;;;;;;2.92;2.72;;;;;;;6.15;73.91;99032.75;4105217;28;20875;-55
2022/04/27 02:28:58;;;;;;;2.85;2.65;;;;;;;6.13;74.28;99037.53;4091291;28;20207;-55
2022/04/27 02:31:00;;;;;;;3.42;3.15;;;;;;;6.11;74.20;99032.34;4094327;28;20340;-55
2022/04/27 02:33:02;;;;;;;2.30;2.10;;;;;;;6.07;73.88;99038.38;4104951;28;20210;-56
2022/04/27 02:35:05;;;;;;;1.88;1.75;;;;;;;6.10;73.58;99037.97;4090625;28;20282;-55
2022/04/27 02:37:06;;;;;;;2.72;2.53;;;;;;;6.10;73.65;99043.41;4096322;28;20238;-55
2022/04/27 02:39:09;;;;;;;2.08;1.98;;;;;;;6.09;73.88;99042.53;4088345;29;20216;-54
2022/04/27 02:41:11;;;;;;;1.98;1.77;;;;;;;6.07;73.70;99043.78;4090722;29;20223;-55
2022/04/27 02:43:14;;;;;;;2.97;2.67;;;;;;;6.02;73.54;99046.31;4104947;28;20227;-55
2022/04/27 02:45:15;;;;;;;2.97;2.78;;;;;;;5.95;73.63;99045.50;4104272;28;20315;-55
2022/04/27 02:47:18;;;;;;;2.45;2.28;;;;;;;5.90;73.77;99037.13;4102600;28;20696;-55
2022/04/27 02:51:48;;;;;;;2.80;2.47;;;;;;;5.83;73.94;99041.72;4115379;28;20657;-55
2022/04/27 02:53:50;;;;;;;3.35;2.97;;;;;;;5.82;73.77;99034.63;4094866;29;20209;-55
2022/04/27 02:55:52;;;;;;;2.45;2.33;;;;;;;5.79;73.70;99045.84;4104872;28;20278;-55
2022/04/27 02:57:53;;;;;;;2.55;2.35;;;;;;;5.78;74.02;99039.59;4105233;28;20207;-56
2022/04/27 02:59:55;;;;;;;2.03;1.92;;;;;;;5.74;73.96;99035.59;4091545;29;20211;-55
2022/04/27 03:01:57;;;;;;;2.42;2.28;;;;;;;5.72;73.64;99040.41;4088804;28;20204;-55
2022/04/27 03:03:59;;;;;;;2.50;2.13;;;;;;;5.71;73.85;99038.75;4089158;28;20227;-55
2022/04/27 03:06:00;;;;;;;1.85;1.60;;;;;;;5.69;73.95;99031.84;4089258;28;20275;-55
2022/04/27 03:08:02;;;;;;;2.53;2.33;;;;;;;5.67;73.79;99042.91;4089975;29;20220;-56
2022/04/27 03:10:05;;;;;;;2.35;2.25;;;;;;;5.66;73.73;99043.09;4086638;28;20272;-55
2022/04/27 03:12:07;;;;;;;2.22;2.13;;;;;;;5.64;73.68;99039.75;4102901;28;20681;-55
2022/04/27 03:14:09;;;;;;;3.15;2.95;;;;;;;5.60;73.99;99038.50;4120229;28;20213;-56
2022/04/27 03:16:10;;;;;;;2.10;2.00;;;;;;;5.55;73.91;99032.88;4105234;28;20244;-55
2022/04/27 03:18:19;;;;;;;2.20;2.10;;;;;;;5.48;73.97;99043.69;4093248;28;20669;-56
2022/04/27 03:20:21;;;;;;;2.30;2.10;;;;;;;5.46;73.81;99042.22;4089839;29;20210;-54
2022/04/27 03:22:23;;;;;;;2.75;2.55;;;;;;;5.46;73.63;99042.22;4088605;28;21981;-55
2022/04/27 03:24:25;;;;;;;2.40;2.20;;;;;;;5.46;73.78;99050.34;4089849;29;20220;-54
2022/04/27 03:26:27;;;;;;;3.03;2.53;;;;;;;5.43;73.69;99050.78;4093054;28;21978;-55
2022/04/27 03:28:28;;;;;;;2.60;2.40;;;;;;;5.42;74.02;99049.13;4090044;29;20242;-55
2022/04/27 03:30:30;;;;;;;7.13;3.78;;;;;;;5.44;74.11;99047.03;4118539;28;20245;-55
2022/04/27 03:32:31;;;;;;;3.15;2.75;;;;;;;5.43;74.13;99050.78;4086107;28;20228;-55
2022/04/27 03:34:33;;;;;;;2.10;2.00;;;;;;;5.42;74.22;99043.69;4090262;29;20234;-55
2022/04/27 03:36:35;;;;;;;2.92;2.72;;;;;;;5.39;74.21;99052.22;4089972;28;20266;-55
2022/04/27 03:38:38;;;;;;;3.45;2.85;;;;;;;5.37;74.15;99055.13;4092636;29;20989;-55
2022/04/27 03:40:41;;;;;;;3.35;3.15;;;;;;;5.37;74.19;99051.59;4087559;29;20211;-56
2022/04/27 03:42:43;;;;;;;2.85;2.60;;;;;;;5.37;73.82;99062.44;4102583;28;20215;-56
2022/04/27 03:44:45;;;;;;;2.78;2.58;;;;;;;5.37;73.90;99059.75;4116627;28;20577;-55
2022/04/27 03:46:46;;;;;;;2.58;2.38;;;;;;;5.36;73.55;99063.50;4092600;29;20709;-55
2022/04/27 03:48:52;;;;;;;2.17;2.08;;;;;;;5.32;73.27;99064.94;4102558;28;20654;-56
2022/04/27 03:50:53;;;;;;;2.28;2.17;;;;;;;5.28;73.52;99066.38;4105517;28;20206;-56
2022/04/27 03:52:55;;;;;;;2.50;2.22;;;;;;;5.26;73.85;99072.03;4121233;28;20205;-56
2022/04/27 03:55:00;;;;;;;2.97;2.78;;;;;;;5.23;73.72;99066.16;4087979;29;20624;-56
2022/04/27 03:57:08;;;;;;;2.45;2.25;;;;;;;5.22;73.70;99064.50;4118298;28;20320;-55
2022/04/27 03:59:10;;;;;;;2.88;2.65;;;;;;;5.18;73.58;99074.06;4102708;28;20650;-54
2022/04/27 04:01:12;;;;;;;2.90;2.70;;;;;;;5.15;73.32;99074.47;4089972;29;20234;-55
2022/04/27 04:03:13;;;;;;;2.38;2.28;;;;;;;5.13;73.46;99076.53;4086704;29;20214;-56
2022/04/27 04:05:22;;;;;;;2.15;2.03;;;;;;;5.13;73.43;99076.53;4086341;28;20231;-56
2022/04/27 04:07:23;;;;;;;2.55;2.45;;;;;;;5.12;73.50;99080.28;4087108;28;20214;-55
2022/04/27 04:09:25;;;;;;;2.13;2.00;;;;;;;5.12;73.44;99072.16;4093062;28;20239;-54
2022/04/27 04:11:27;;;;;;;3.05;2.85;;;;;;;5.07;73.45;99078.19;4087925;29;20242;-55
2022/04/27 04:13:29;;;;;;;3.03;2.67;;;;;;;5.07;73.22;99081.94;4085589;28;20593;-55
2022/04/27 04:15:31;;;;;;;2.40;2.22;;;;;;;5.06;73.67;99088.41;4102189;28;20269;-56
2022/04/27 04:17:32;;;;;;;2.35;2.17;;;;;;;5.03;73.73;99089.66;4087703;29;20220;-56
2022/04/27 04:19:34;;;;;;;3.05;2.75;;;;;;;5.02;73.51;99084.41;4091451;29;20331;-56
2022/04/27 04:21:36;;;;;;;2.22;2.13;;;;;;;5.00;74.12;99081.91;4118976;28;20273;-55
2022/04/27 04:23:37;;;;;;;2.78;2.58;;;;;;;5.01;74.16;99083.56;4091417;29;20540;-55
2022/04/27 04:30:20;;;;;;;2.20;2.10;;;;;;;5.00;73.86;99098.16;4087375;29;20207;-54
2022/04/27 04:32:22;;;;;;;2.47;2.28;;;;;;;4.87;74.81;99099.97;4092170;28;20828;-55
2022/04/27 04:34:23;;;;;;;3.70;3.40;;;;;;;4.89;74.86;99096.03;4103860;28;20203;-57
2022/04/27 04:36:25;;;;;;;3.30;3.00;;;;;;;4.93;74.81;99105.44;4104402;28;20238;-56
2022/04/27 04:38:27;;;;;;;2.80;2.67;;;;;;;4.94;74.63;99104.38;4101215;28;20202;-56
2022/04/27 04:40:28;;;;;;;3.63;3.33;;;;;;;4.97;74.65;99108.56;4087335;29;20435;-55
2022/04/27 04:42:30;;;;;;;2.58;2.30;;;;;;;4.99;74.49;99115.47;4093183;29;20234;-55
2022/04/27 04:44:32;;;;;;;4.15;3.85;;;;;;;5.01;74.43;99110.69;4102033;28;20226;-55
2022/04/27 04:46:34;;;;;;;3.90;3.60;;;;;;;5.04;74.29;99110.31;4088520;28;20294;-56
2022/04/27 04:48:35;;;;;;;2.95;2.70;;;;;;;5.05;74.02;99114.69;4087331;29;20271;-55
2022/04/27 04:50:37;;;;;;;4.15;3.85;;;;;;;5.04;74.13;99121.16;4117840;28;20323;-55
2022/04/27 04:52:39;;;;;;;3.08;2.88;;;;;;;5.06;74.14;99119.06;4086282;29;20212;-55
2022/04/27 04:54:41;;;;;;;2.67;2.47;;;;;;;5.08;73.95;99116.97;4101038;28;20246;-55
2022/04/27 04:56:42;;;;;;;3.13;2.83;;;;;;;5.07;73.84;99118.88;4091343;29;20230;-55
2022/04/27 04:58:44;;;;;;;3.30;2.95;;;;;;;5.10;74.08;99128.50;4100882;28;20217;-55
2022/04/27 05:00:48;;;;;;;3.40;3.08;;;;;;;5.12;73.75;99118.25;4092492;29;20310;-55
2022/04/27 05:02:49;;;;;;;3.33;3.03;;;;;;;5.13;74.06;99124.53;4086231;29;20226;-56
2022/04/27 05:04:51;;;;;;;4.45;4.05;;;;;;;5.15;73.90;99128.72;4086367;29;20237;-55
2022/04/27 05:06:53;;;;;;;3.30;3.08;;;;;;;5.18;73.66;99133.75;4103000;28;20242;-55
2022/04/27 05:08:55;;;;;;;4.00;3.70;;;;;;;5.21;73.63;99127.91;4117654;28;20203;-55
2022/04/27 05:10:56;;;;;;;2.55;2.40;;;;;;;5.24;73.64;99139.19;4086672;28;20210;-55
2022/04/27 05:12:58;;;;;;;3.33;3.13;;;;;;;5.25;73.84;99140.88;4101057;28;20211;-55
2022/04/27 05:15:00;;;;;;;3.78;3.45;;;;;;;5.25;73.85;99145.47;4100030;28;20191;-56
2022/04/27 05:17:01;;;;;;;2.60;2.40;;;;;;;5.19;74.25;99146.25;4090887;28;20223;-56
2022/04/27 05:19:03;;;;;;;3.45;3.15;;;;;;;5.22;74.46;99141.28;4107068;28;20211;-56
2022/04/27 05:21:05;;;;;;;3.28;2.83;;;;;;;5.17;74.77;99148.34;4104158;28;20227;-56
2022/04/27 05:23:07;;;;;;;3.47;3.17;;;;;;;5.17;75.04;99148.34;4120648;28;20206;-56
2022/04/27 05:25:09;;;;;;;4.47;4.07;;;;;;;5.17;75.44;99146.44;4092428;29;20230;-56
2022/04/27 05:27:11;;;;;;;3.25;3.05;;;;;;;5.25;75.16;99150.88;4089543;29;20228;-56
2022/04/27 05:31:57;;;;;;;3.55;3.30;;;;;;;5.31;74.99;99166.38;4087380;28;20208;-55
2022/04/27 05:33:59;;;;;;;4.13;3.83;;;;;;;5.37;75.28;99154.72;4105299;28;20298;-55
2022/04/27 05:36:00;;;;;;;4.72;4.32;;;;;;;5.44;75.25;99167.25;4091101;28;20224;-55
2022/04/27 05:38:02;;;;;;;4.78;4.38;;;;;;;5.53;75.37;99173.34;4088943;29;20216;-55
2022/04/27 05:40:05;;;;;;;4.47;4.15;;;;;;;5.59;75.07;99172.53;4120794;28;20217;-57
2022/04/27 05:42:08;;;;;;;4.45;4.10;;;;;;;5.65;74.98;99169.03;4076129;29;20212;-55
2022/04/27 05:44:10;;;;;;;4.00;3.70;;;;;;;5.73;74.58;99168.84;4101823;28;20207;-55
2022/04/27 05:46:12;;;;;;;3.10;2.88;;;;;;;5.84;74.79;99174.53;4091060;29;20235;-55
2022/04/27 05:48:13;;;;;;;4.60;4.25;;;;;;;5.93;75.00;99175.19;4092734;29;20215;-56
2022/04/27 05:50:15;;;;;;;3.95;3.60;;;;;;;6.04;75.08;99182.75;4094893;29;20819;-55
2022/04/27 05:52:18;;;;;;;4.25;3.95;;;;;;;6.11;75.12;99186.34;4106064;28;20207;-56
2022/04/27 05:54:20;;;;;;;5.28;4.55;;;;;;;6.12;75.25;99182.56;4105538;28;21050;-55
2022/04/27 05:56:23;;;;;;;5.65;4.63;;;;;;;6.22;75.58;99192.00;4074562;29;20236;-56
2022/04/27 05:58:25;;;;;;;5.32;4.93;;;;;;;6.29;76.43;99195.56;4105119;28;20693;-56
2022/04/27 06:00:26;;;;;;;5.00;4.60;;;;;;;6.43;76.80;99202.69;4091310;29;20265;-55
2022/04/27 06:02:28;;;;;;;6.07;4.05;;;;;;;6.52;76.69;99206.06;4119876;28;20354;-56
2022/04/27 06:04:30;;;;;;;5.85;5.35;;;;;;;6.67;76.37;99209.41;4093750;28;20861;-55
2022/04/27 06:06:33;;;;;;;5.05;4.53;;;;;;;6.85;75.41;99204.19;4071254;29;20237;-55
2022/04/27 06:08:35;;;;;;;5.75;5.25;;;;;;;6.97;76.43;99205.25;4102858;28;20278;-55
2022/04/27 06:10:36;;;;;;;6.00;5.50;;;;;;;7.04;76.00;99200.63;4101731;28;20733;-55
2022/04/27 06:12:46;;;;;;;5.53;5.03;;;;;;;7.21;75.31;99201.88;4121729;28;20210;-56
2022/04/27 06:14:48;;;;;;;5.80;5.30;;;;;;;7.27;74.82;99206.44;4087507;28;20207;-56
2022/04/27 06:16:50;;;;;;;4.55;4.20;;;;;;;7.35;74.69;99207.06;4089330;28;20239;-54
2022/04/27 06:18:51;;;;;;;6.22;4.90;;;;;;;7.22;74.97;99209.81;4091178;28;20752;-54
2022/04/27 06:20:53;;;;;;;5.18;4.68;;;;;;;7.21;75.13;99207.31;4119801;28;20360;-54
2022/04/27 06:22:58;;;;;;;5.88;5.38;;;;;;;7.24;75.29;99212.31;4090974;29;20219;-54
2022/04/27 06:25:00;;;;;;;6.30;5.70;;;;;;;7.28;75.88;99214.41;4090672;28;20227;-53
2022/04/27 06:27:01;;;;;;;4.63;4.22;;;;;;;7.50;76.13;99221.25;4119990;28;20567;-55
2022/04/27 06:29:03;;;;;;;6.30;5.80;;;;;;;7.62;76.20;99216.81;4118221;28;20218;-54
2022/04/27 06:31:08;;;;;;;8.25;6.97;;;;;;;7.52;74.69;99216.44;4091230;29;20208;-54
2022/04/27 06:33:12;;;;;;;6.05;5.40;;;;;;;7.42;75.14;99215.22;4087865;29;20208;-54
2022/04/27 06:35:14;;;;;;;5.82;5.32;;;;;;;7.46;75.03;99216.44;4089559;29;20215;-55
2022/04/27 06:37:16;;;;;;;6.32;5.72;;;;;;;7.63;74.72;99218.50;4094049;29;20231;-56
2022/04/27 06:39:18;;;;;;;6.20;5.63;;;;;;;7.84;75.30;99220.13;4091515;29;20208;-57
2022/04/27 06:41:19;;;;;;;6.65;5.70;;;;;;;7.95;75.28;99227.63;4094859;29;20294;-56
2022/04/27 06:43:21;;;;;;;6.63;6.03;;;;;;;8.02;74.44;99229.25;4088787;29;20224;-56
2022/04/27 06:45:28;;;;;;;6.85;6.32;;;;;;;8.09;74.58;99235.50;4097393;29;20311;-55
2022/04/27 06:47:32;;;;;;;7.05;6.43;;;;;;;8.24;74.01;99227.09;4102311;28;20207;-55
2022/04/27 06:49:34;;;;;;;6.03;5.53;;;;;;;8.75;73.44;99236.81;4091692;28;20654;-55
2022/04/27 06:51:42;;;;;;;7.95;7.20;;;;;;;8.73;73.29;99238.09;4116289;28;20219;-56
2022/04/27 06:53:44;;;;;;;5.78;5.28;;;;;;;9.12;72.56;99233.19;4102821;28;20214;-55
2022/04/27 06:55:47;;;;;;;6.93;6.35;;;;;;;9.29;71.69;99241.66;4088499;29;20231;-57
2022/04/27 06:57:49;;;;;;;6.35;5.75;;;;;;;9.10;71.24;99239.94;4087953;29;20207;-56
2022/04/27 06:59:51;;;;;;;7.38;6.68;;;;;;;9.05;71.95;99237.88;4092975;29;20199;-55
2022/04/27 07:01:54;;;;;;;8.45;7.78;;;;;;;9.41;72.09;99248.88;4119786;28;20202;-56
2022/04/27 07:03:56;;;;;;;6.47;5.85;;;;;;;9.32;71.90;99246.66;4119745;28;20271;-54
2022/04/27 07:05:59;;;;;;;8.50;7.60;;;;;;;9.60;72.31;99247.84;4088358;29;20270;-55
2022/04/27 07:08:01;;;;;;;5.28;4.75;;;;;;;9.93;70.05;99247.47;4086375;29;20211;-57
2022/04/27 07:10:08;;;;;;;6.30;5.63;;;;;;;9.98;70.55;99250.38;4088853;29;20240;-54
2022/04/27 07:12:12;;;;;;;8.27;7.18;;;;;;;10.00;70.59;99251.81;4093703;28;20570;-55
2022/04/27 07:14:16;;;;;;;6.28;5.82;;;;;;;10.23;69.41;99254.72;4117025;28;20210;-55
2022/04/27 07:16:18;;;;;;;8.38;7.35;;;;;;;10.17;71.29;99252.06;4090187;28;20224;-55
2022/04/27 07:18:20;;;;;;;7.60;6.82;;;;;;;10.77;70.17;99255.41;4099954;28;20241;-53
2022/04/27 07:20:21;;;;;;;7.95;5.78;;;;;;;10.92;69.48;99250.34;4099361;28;20211;-52
2022/04/27 07:22:23;;;;;;;5.97;5.22;;;;;;;10.78;68.41;99256.28;4117900;28;20210;-55
2022/04/27 07:24:25;;;;;;;6.55;6.03;;;;;;;10.72;68.88;99256.34;4092015;29;20247;-55
2022/04/27 07:26:27;;;;;;;7.70;6.55;;;;;;;10.69;68.55;99256.81;4104591;28;20230;-55
2022/04/27 07:28:29;;;;;;;10.35;6.55;;;;;;;11.02;67.48;99267.03;4088884;29;20247;-54
2022/04/27 07:30:30;;;;;;;7.28;6.57;;;;;;;10.96;67.10;99257.03;4088460;29;20256;-53
2022/04/27 07:32:32;;;;;;;7.28;6.57;;;;;;;10.99;67.45;99262.06;4097703;28;20219;-54
2022/04/27 07:34:34;;;;;;;6.93;6.22;;;;;;;11.06;67.66;99261.94;4087273;28;20777;-55
2022/04/27 07:36:35;;;;;;;6.82;6.22;;;;;;;10.94;68.26;99259.19;4092666;29;20848;-55
2022/04/27 07:38:38;;;;;;;7.35;6.75;;;;;;;10.63;69.39;99257.75;4093426;28;20211;-53
2022/04/27 07:40:40;;;;;;;7.50;6.70;;;;;;;11.12;68.62;99259.06;4119129;28;21619;-54
2022/04/27 07:42:42;;;;;;;6.50;5.88;;;;;;;10.84;68.22;99256.16;4117534;28;20214;-57
2022/04/27 07:44:46;;;;;;;7.72;7.03;;;;;;;10.58;68.85;99254.88;4105203;28;20755;-54
2022/04/27 07:46:48;;;;;;;6.53;5.93;;;;;;;10.58;68.83;99263.94;4120124;28;20229;-54
2022/04/27 07:48:53;;;;;;;8.77;6.72;;;;;;;10.68;69.62;99264.19;4091771;28;20215;-53
2022/04/27 07:50:55;;;;;;;7.15;6.55;;;;;;;10.84;68.59;99269.84;4102061;28;20210;-53
2022/04/27 07:52:57;;;;;;;18.90;8.15;;;;;;;11.08;68.18;99266.09;4103787;28;20234;-53
2022/04/27 07:54:59;;;;;;;6.75;6.10;;;;;;;11.28;68.23;99269.38;4093533;28;20308;-55
2022/04/27 07:57:01;;;;;;;6.95;6.25;;;;;;;11.56;67.37;99265.94;4093825;29;20653;-53
2022/04/27 07:59:03;;;;;;;8.23;7.53;;;;;;;11.71;67.41;99272.63;4094316;29;20214;-53
2022/04/27 08:01:04;;;;;;;7.57;6.97;;;;;;;11.71;66.85;99269.06;4087775;29;20274;-53
2022/04/27 08:03:06;;;;;;;6.95;6.22;;;;;;;12.06;67.16;99267.97;4103321;28;20207;-55
2022/04/27 08:05:09;;;;;;;7.20;6.35;;;;;;;12.21;66.36;99273.78;4102262;28;20701;-56
2022/04/27 08:07:11;;;;;;;7.60;6.90;;;;;;;11.88;66.15;99281.81;4087915;28;20714;-54
2022/04/27 08:09:13;;;;;;;8.38;7.57;;;;;;;11.43;67.24;99275.22;4084657;28;20247;-54
2022/04/27 08:11:16;;;;;;;8.65;7.32;;;;;;;11.82;66.95;99281.91;4102784;28;20215;-53
2022/04/27 08:13:17;;;;;;;7.40;6.70;;;;;;;11.89;65.67;99280.72;4120524;28;20215;-53
2022/04/27 08:15:22;;;;;;;8.00;7.43;;;;;;;12.34;65.77;99279.00;4116457;28;20226;-53
2022/04/27 08:17:24;;;;;;;20.17;8.05;;;;;;;12.38;65.75;99279.34;4089301;29;20211;-53
2022/04/27 08:19:25;;;;;;;7.43;6.82;;;;;;;12.42;64.76;99289.59;4089301;29;20211;-53
2022/04/27 08:21:27;;;;;;;7.53;6.72;;;;;;;12.79;64.26;99282.66;4085318;29;20211;-56
2022/04/27 08:23:31;;;;;;;8.07;6.78;;;;;;;13.16;63.48;99286.66;4085860;28;20286;-54
2022/04/27 08:25:34;;;;;;;9.48;8.68;;;;;;;13.38;63.13;99293.09;4090195;28;20224;-55
2022/04/27 08:27:36;;;;;;;7.28;6.68;;;;;;;13.47;63.37;99286.13;4088337;28;20274;-54
2022/04/27 08:29:37;;;;;;;7.75;7.05;;;;;;;13.49;63.58;99283.94;4087095;29;20203;-57
2022/04/27 08:31:40;;;;;;;6.15;5.60;;;;;;;14.39;62.04;99293.59;4089806;29;20219;-55
2022/04/27 08:33:48;;;;;;;7.95;7.15;;;;;;;13.92;61.58;99284.09;4090496;28;20234;-53
2022/04/27 08:35:51;;;;;;;7.25;6.65;;;;;;;13.99;61.22;99283.91;4105361;28;20721;-54
2022/04/27 08:38:13;;;;;;;7.22;6.60;;;;;;;14.44;61.30;99288.13;4092829;28;20286;-53
2022/04/27 08:40:15;;;;;;;7.55;6.90;;;;;;;14.00;58.75;99286.41;4088705;29;20326;-54
2022/04/27 08:42:17;;;;;;;6.53;5.93;;;;;;;13.92;61.56;99283.25;4086741;28;20215;-54
2022/04/27 08:44:19;;;;;;;6.15;5.53;;;;;;;14.08;61.31;99285.97;4112751;28;20253;-53
2022/04/27 08:46:21;;;;;;;5.57;4.95;;;;;;;14.83;60.60;99286.97;4099845;28;20239;-54
2022/04/27 08:48:23;;;;;;;7.32;5.45;;;;;;;15.28;59.66;99287.44;4084628;28;20214;-53
2022/04/27 08:50:26;;;;;;;6.53;5.97;;;;;;;15.40;58.67;99293.66;4100734;28;20235;-54
2022/04/27 08:52:28;;;;;;;5.65;5.15;;;;;;;14.91;57.21;99292.00;4086904;29;20211;-53
2022/04/27 08:54:32;;;;;;;5.60;5.10;;;;;;;14.71;57.76;99294.53;4086057;29;20211;-53
2022/04/27 08:56:35;;;;;;;8.55;6.05;;;;;;;14.62;57.54;99285.06;4118799;28;20330;-55
2022/04/27 08:58:36;;;;;;;6.10;5.60;;;;;;;14.50;58.75;99289.88;4087299;28;20247;-53
2022/04/27 09:00:44;;;;;;;5.32;4.90;;;;;;;14.65;59.17;99295.59;4100784;28;20309;-53
2022/04/27 09:02:46;;;;;;;6.35;5.75;;;;;;;14.58;58.49;99294.91;4086245;29;20206;-53
2022/04/27 09:05:10;;;;;;;6.10;5.57;;;;;;;14.27;59.25;99300.28;4091398;28;20226;-54
2022/04/27 09:07:21;;;;;;;6.18;5.30;;;;;;;14.48;58.07;99307.72;4102009;28;20759;-53
2022/04/27 09:09:34;;;;;;;5.93;5.32;;;;;;;14.05;59.14;99296.66;4084953;29;20207;-53
2022/04/27 09:11:37;;;;;;;6.25;5.70;;;;;;;13.67;58.94;99300.19;4083658;29;20250;-53
2022/04/27 09:13:40;;;;;;;5.20;4.72;;;;;;;13.83;58.96;99302.09;4088316;29;20270;-53
2022/04/27 09:15:41;;;;;;;5.57;5.03;;;;;;;14.28;58.65;99305.56;4096348;28;20211;-53
2022/04/27 09:22:52;;;;;;;5.18;4.72;;;;;;;14.63;57.79;99308.75;4085223;28;20220;-53
2022/04/27 09:24:57;;;;;;;6.05;5.50;;;;;;;14.60;56.85;99309.28;4084362;28;20578;-53
2022/04/27 09:27:14;;;;;;;5.28;4.82;;;;;;;14.32;57.08;99311.38;4115495;28;20230;-53
2022/04/27 09:29:26;;;;;;;4.70;4.07;;;;;;;14.29;57.16;99309.97;4099219;28;20211;-54
2022/04/27 09:31:32;;;;;;;5.15;4.65;;;;;;;14.67;56.64;99312.69;4100002;28;20208;-54
2022/04/27 09:33:38;;;;;;;5.50;4.80;;;;;;;14.83;56.64;99308.19;4083793;29;20605;-52
2022/04/27 09:35:39;;;;;;;6.40;5.90;;;;;;;15.68;56.76;99309.06;4118058;28;20207;-53
2022/04/27 09:37:42;;;;;;;5.10;4.70;;;;;;;16.30;55.75;99305.34;4094090;29;20215;-53
2022/04/27 09:39:46;;;;;;;6.60;6.00;;;;;;;16.13;54.81;99301.09;4087577;28;20330;-53
2022/04/27 09:41:49;;;;;;;5.65;5.15;;;;;;;16.30;55.20;99302.59;4119190;28;20211;-53
2022/04/27 09:43:51;;;;;;;5.20;4.70;;;;;;;16.18;53.18;99304.75;4113966;28;20211;-53
2022/04/27 09:46:16;;;;;;;5.68;5.15;;;;;;;15.96;54.31;99303.22;4084221;28;20330;-53
2022/04/27 09:48:18;;;;;;;5.40;5.00;;;;;;;16.06;53.36;99304.13;4084752;28;20259;-53
2022/04/27 09:50:20;;;;;;;4.95;4.50;;;;;;;15.86;53.75;99303.97;4087858;28;20204;-54
2022/04/27 09:52:23;;;;;;;14.32;4.85;;;;;;;15.89;55.28;99303.44;4101101;28;20215;-54
2022/04/27 09:54:30;;;;;;;5.72;5.22;;;;;;;16.12;53.02;99297.53;4088048;29;20659;-54
2022/04/27 09:56:34;;;;;;;4.80;4.30;;;;;;;15.69;55.06;99297.75;4089437;28;20279;-55
2022/04/27 09:58:43;;;;;;;4.90;4.35;;;;;;;15.98;54.77;99296.34;4086222;28;20235;-53
2022/04/27 10:00:46;;;;;;;5.30;4.80;;;;;;;16.77;55.35;99300.63;4085504;28;20473;-52
2022/04/27 10:02:48;;;;;;;5.55;5.05;;;;;;;17.24;52.93;99295.78;4116200;28;20249;-52